Time;durP1;ratioP1;P1;durP2;ratioP2;P2;SDS_P1;SDS_P2;PMS_P1;PMS_P2;Temp;Humidity;BMP_temperature;BMP_pressure;BME280_temperature;BME280_humidity;BME280_pressure;Samples;Min_cycle;Max_cycle;Signal;HPM_P1;HPM_P2
2022/10/02 00:00:12;;;;;;;6.13;2.10;;;;;;;;;;5019939;28;20094;-79
2022/10/02 00:02:53;;;;;;;4.60;1.80;;;;;;;;;;4990147;28;20029;-78
2022/10/02 00:05:22;;;;;;;5.32;1.90;;;;;;;;;;5016705;28;20056;-79
2022/10/02 00:07:59;;;;;;;4.80;1.95;;;;;;;;;;5000624;28;20045;-78
2022/10/02 00:10:29;;;;;;;4.53;1.90;;;;;;;;;;5000281;28;20038;-78
2022/10/02 00:13:01;;;;;;;7.43;2.17;;;;;;;;;;5016263;28;20079;-78
2022/10/02 00:15:28;;;;;;;;;;;;;;;;;;5000846;28;20121;-78
2022/10/02 00:17:55;;;;;;;5.28;2.63;;;;;;;;;;5016832;28;19916;-78
2022/10/02 00:20:24;;;;;;;4.60;1.85;;;;;;;;;;5000731;28;20034;-78
2022/10/02 00:22:57;;;;;;;6.28;1.85;;;;;;;;;;4999608;28;20033;-78
2022/10/02 00:25:42;;;;;;;4.60;1.90;;;;;;;;;;4983915;28;20034;-78
2022/10/02 00:28:29;;;;;;;3.72;1.50;;;;;;;;;;5015252;28;20036;-78
2022/10/02 00:30:59;;;;;;;4.95;1.70;;;;;;;;;;5000097;28;20033;-78
2022/10/02 00:33:38;;;;;;;5.22;1.60;;;;;;;;;;4999983;28;20021;-78
2022/10/02 00:36:28;;;;;;;4.40;1.55;;;;;;;;;;5016494;28;20176;-78
2022/10/02 00:39:01;;;;;;;3.92;1.48;;;;;;;;;;5017356;28;20081;-78
2022/10/02 00:42:05;;;;;;;5.10;1.73;;;;;;;;;;4984301;28;20029;-78
2022/10/02 00:44:47;;;;;;;3.85;1.50;;;;;;;;;;4999360;28;20052;-78
2022/10/02 00:47:29;;;;;;;3.83;1.73;;;;;;;;;;4999935;28;20061;-78
2022/10/02 00:50:19;;;;;;;5.03;2.08;;;;;;;;;;4999867;28;20116;-78
2022/10/02 00:53:00;;;;;;;6.32;1.75;;;;;;;;;;4985718;28;20029;-78
2022/10/02 00:55:44;;;;;;;6.63;2.60;;;;;;;;;;5042279;28;20601;-78
2022/10/02 00:58:26;;;;;;;4.32;1.85;;;;;;;;;;5036132;28;20045;-78
2022/10/02 01:01:10;;;;;;;4.05;1.40;;;;;;;;;;5036056;28;20087;-78
2022/10/02 01:03:43;;;;;;;6.55;1.75;;;;;;;;;;4980826;28;20026;-78
2022/10/02 01:06:08;;;;;;;6.07;1.70;;;;;;;;;;4963980;28;20085;-78
2022/10/02 01:08:34;;;;;;;5.40;1.60;;;;;;;;;;4996044;28;20033;-78
2022/10/02 01:11:00;;;;;;;3.67;1.77;;;;;;;;;;4979923;28;20448;-78
2022/10/02 01:13:26;;;;;;;4.20;1.60;;;;;;;;;;4979779;28;20492;-78
2022/10/02 01:15:54;;;;;;;5.15;1.98;;;;;;;;;;4998089;28;20084;-78
2022/10/02 01:18:19;;;;;;;5.05;2.00;;;;;;;;;;4983494;28;20044;-78
2022/10/02 01:20:49;;;;;;;4.00;1.38;;;;;;;;;;4999026;28;20033;-79
2022/10/02 01:23:33;;;;;;;4.28;1.80;;;;;;;;;;4982802;28;20037;-78
2022/10/02 01:25:59;;;;;;;3.35;1.10;;;;;;;;;;5015318;28;20048;-78
2022/10/02 01:28:24;;;;;;;4.70;2.20;;;;;;;;;;4982744;28;20037;-78
2022/10/02 01:30:52;;;;;;;3.63;1.90;;;;;;;;;;4982581;28;20111;-78
2022/10/02 01:33:17;;;;;;;4.32;1.73;;;;;;;;;;4999414;28;20480;-77
2022/10/02 01:35:43;;;;;;;3.78;1.60;;;;;;;;;;4982491;28;20044;-78
2022/10/02 01:38:10;;;;;;;6.28;1.50;;;;;;;;;;4982812;28;20044;-78
2022/10/02 01:40:36;;;;;;;5.55;1.63;;;;;;;;;;4981644;28;20026;-78
2022/10/02 01:43:10;;;;;;;4.25;1.80;;;;;;;;;;4966394;28;20065;-78
2022/10/02 01:45:35;;;;;;;4.32;1.58;;;;;;;;;;4983148;28;20041;-78
2022/10/02 01:48:06;;;;;;;4.40;1.60;;;;;;;;;;5015158;28;20091;-78
2022/10/02 01:50:40;;;;;;;5.57;1.70;;;;;;;;;;4999011;28;20554;-78
2022/10/02 01:53:08;;;;;;;5.15;1.67;;;;;;;;;;4999467;28;20426;-78
2022/10/02 01:55:39;;;;;;;3.92;1.33;;;;;;;;;;5025307;28;20060;-78
2022/10/02 01:58:18;;;;;;;6.13;1.70;;;;;;;;;;5018502;28;20028;-78
2022/10/02 02:01:18;;;;;;;4.70;1.42;;;;;;;;;;5001747;28;20364;-78
2022/10/02 02:04:02;;;;;;;4.03;1.35;;;;;;;;;;4994793;28;20040;-78
2022/10/02 02:06:30;;;;;;;3.28;1.23;;;;;;;;;;4995706;28;20033;-78
2022/10/02 02:09:06;;;;;;;4.00;1.15;;;;;;;;;;4995113;28;20038;-78
2022/10/02 02:11:32;;;;;;;5.35;1.45;;;;;;;;;;4994133;28;20105;-78
2022/10/02 02:14:23;;;;;;;4.97;1.80;;;;;;;;;;4981658;28;20045;-78
2022/10/02 02:17:09;;;;;;;3.88;1.27;;;;;;;;;;4978842;28;20030;-78
2022/10/02 02:19:38;;;;;;;3.22;1.17;;;;;;;;;;4980428;28;20092;-78
2022/10/02 02:22:10;;;;;;;3.40;1.10;;;;;;;;;;4978590;28;20036;-78
2022/10/02 02:24:42;;;;;;;5.38;1.60;;;;;;;;;;4995621;28;20037;-78
2022/10/02 02:27:08;;;;;;;3.42;1.10;;;;;;;;;;4978365;28;20498;-78
2022/10/02 02:29:34;;;;;;;3.50;1.38;;;;;;;;;;4994798;28;20550;-79
2022/10/02 02:32:01;;;;;;;6.28;1.48;;;;;;;;;;4994955;28;20026;-78
2022/10/02 02:34:35;;;;;;;6.75;1.75;;;;;;;;;;4995134;28;20037;-78
2022/10/02 02:37:03;;;;;;;7.15;1.88;;;;;;;;;;4994472;28;20136;-78
2022/10/02 02:39:56;;;;;;;3.67;1.60;;;;;;;;;;4995136;28;20045;-78
2022/10/02 02:42:22;;;;;;;;;;;;;;;;;;4992698;28;20202;-79
2022/10/02 02:44:54;;;;;;;4.53;1.15;;;;;;;;;;4993773;28;19944;-80
2022/10/02 02:47:25;;;;;;;3.38;1.52;;;;;;;;;;4996239;28;20046;-80
2022/10/02 02:50:13;;;;;;;3.85;1.10;;;;;;;;;;5014501;28;20033;-80
2022/10/02 02:52:48;;;;;;;4.55;1.13;;;;;;;;;;5022927;28;20052;-79
2022/10/02 02:55:17;;;;;;;4.20;1.60;;;;;;;;;;5038464;28;20037;-79
2022/10/02 02:57:45;;;;;;;4.13;1.40;;;;;;;;;;5000862;28;20037;-80
2022/10/02 03:00:12;;;;;;;4.78;1.52;;;;;;;;;;5017331;28;20032;-79
2022/10/02 03:02:38;;;;;;;3.10;1.10;;;;;;;;;;4984047;28;20072;-79
2022/10/02 03:05:14;;;;;;;4.55;1.27;;;;;;;;;;4977541;28;20400;-79
2022/10/02 03:07:43;;;;;;;5.60;1.50;;;;;;;;;;4978981;28;20041;-79
2022/10/02 03:10:13;;;;;;;5.63;1.83;;;;;;;;;;4994129;28;20070;-79
2022/10/02 03:13:11;;;;;;;3.38;1.13;;;;;;;;;;4994239;28;20038;-79
2022/10/02 03:15:56;;;;;;;5.35;1.73;;;;;;;;;;4973039;28;20046;-79
2022/10/02 03:18:27;;;;;;;3.50;0.98;;;;;;;;;;4978189;28;20030;-79
2022/10/02 03:21:36;;;;;;;3.90;1.13;;;;;;;;;;4977847;28;20057;-80
2022/10/02 03:24:15;;;;;;;3.40;1.30;;;;;;;;;;4965598;28;20041;-80
2022/10/02 03:27:28;;;;;;;4.20;1.38;;;;;;;;;;4995572;28;20057;-79
2022/10/02 03:30:08;;;;;;;3.35;1.00;;;;;;;;;;4967817;28;20084;-79
2022/10/02 03:32:34;;;;;;;5.40;1.35;;;;;;;;;;4977492;28;20059;-79
2022/10/02 03:34:59;;;;;;;5.95;1.45;;;;;;;;;;4977789;28;20034;-79
2022/10/02 03:37:25;;;;;;;3.28;0.93;;;;;;;;;;4977764;28;20160;-80
2022/10/02 03:39:51;;;;;;;5.05;1.02;;;;;;;;;;4977461;28;20388;-79
2022/10/02 03:42:18;;;;;;;4.25;1.25;;;;;;;;;;4977248;28;20034;-80
2022/10/02 03:44:44;;;;;;;3.55;1.48;;;;;;;;;;4977559;28;20116;-79
2022/10/02 03:47:09;;;;;;;3.97;1.10;;;;;;;;;;4977461;28;20036;-79
2022/10/02 03:49:35;;;;;;;3.10;0.75;;;;;;;;;;4997041;28;20040;-79
2022/10/02 03:52:00;;;;;;;3.20;1.13;;;;;;;;;;4980744;28;20083;-80
2022/10/02 03:54:26;;;;;;;3.20;0.90;;;;;;;;;;4966501;28;20388;-79
2022/10/02 03:56:56;;;;;;;3.92;1.10;;;;;;;;;;5016245;28;20033;-78
2022/10/02 03:59:32;;;;;;;2.22;1.00;;;;;;;;;;5000394;28;20491;-80
2022/10/02 04:01:59;;;;;;;4.60;1.23;;;;;;;;;;5005062;28;20419;-79
2022/10/02 04:04:27;;;;;;;2.85;0.98;;;;;;;;;;4964736;28;20072;-80
2022/10/02 04:06:59;;;;;;;3.20;1.10;;;;;;;;;;4964438;28;20459;-79
2022/10/02 04:10:25;;;;;;;3.17;1.00;;;;;;;;;;4964609;28;20030;-80
2022/10/02 04:12:54;;;;;;;3.10;1.10;;;;;;;;;;4996840;28;20065;-79
2022/10/02 04:16:10;;;;;;;2.42;0.80;;;;;;;;;;4980562;28;20037;-80
2022/10/02 04:18:56;;;;;;;3.97;1.10;;;;;;;;;;4974040;28;20041;-79
2022/10/02 04:21:24;;;;;;;3.40;1.05;;;;;;;;;;5000421;28;20035;-79
2022/10/02 04:24:25;;;;;;;4.15;1.42;;;;;;;;;;5000149;28;20029;-79
2022/10/02 04:27:09;;;;;;;3.88;1.23;;;;;;;;;;5029357;28;20041;-80
2022/10/02 04:29:57;;;;;;;3.42;1.30;;;;;;;;;;5034105;28;20556;-80
2022/10/02 04:32:25;;;;;;;3.33;0.90;;;;;;;;;;5000030;28;20033;-80
2022/10/02 04:34:51;;;;;;;3.30;1.15;;;;;;;;;;4983891;28;20040;-79
2022/10/02 04:37:19;;;;;;;3.00;1.05;;;;;;;;;;4984015;28;20087;-79
2022/10/02 04:39:54;;;;;;;2.58;0.95;;;;;;;;;;4999651;28;20562;-80
2022/10/02 04:42:30;;;;;;;3.50;1.35;;;;;;;;;;4999784;28;20085;-80
2022/10/02 04:45:01;;;;;;;3.75;1.15;;;;;;;;;;4983602;28;20065;-80
2022/10/02 04:47:26;;;;;;;3.67;0.80;;;;;;;;;;4999692;28;20036;-80
2022/10/02 04:49:52;;;;;;;3.65;1.00;;;;;;;;;;5032369;28;20395;-80
2022/10/02 04:52:55;;;;;;;1.55;0.85;;;;;;;;;;4999375;28;20076;-80
2022/10/02 04:55:44;;;;;;;2.67;0.80;;;;;;;;;;5041554;28;20025;-80
2022/10/02 04:58:31;;;;;;;2.40;1.27;;;;;;;;;;4988251;28;20060;-79
2022/10/02 05:01:06;;;;;;;2.00;0.80;;;;;;;;;;5035412;28;20037;-79
2022/10/02 05:03:41;;;;;;;2.60;0.90;;;;;;;;;;4996441;28;20476;-79
2022/10/02 05:06:12;;;;;;;4.32;1.00;;;;;;;;;;4996542;28;20034;-79
2022/10/02 05:08:56;;;;;;;3.13;1.02;;;;;;;;;;4996075;28;20388;-80
2022/10/02 05:11:29;;;;;;;3.38;1.15;;;;;;;;;;4997649;28;20064;-79
2022/10/02 05:14:17;;;;;;;3.58;1.00;;;;;;;;;;4994786;28;20046;-80
2022/10/02 05:16:52;;;;;;;4.80;1.08;;;;;;;;;;5012057;28;20034;-80
2022/10/02 05:19:56;;;;;;;4.30;1.08;;;;;;;;;;5013692;28;20052;-79
2022/10/02 05:22:21;;;;;;;3.28;1.15;;;;;;;;;;4995850;28;20026;-79
2022/10/02 05:24:54;;;;;;;2.95;0.80;;;;;;;;;;4979140;28;20052;-80
2022/10/02 05:27:35;;;;;;;5.00;1.02;;;;;;;;;;5011906;28;20056;-79
2022/10/02 05:30:07;;;;;;;3.15;0.85;;;;;;;;;;4995347;28;20439;-80
2022/10/02 05:32:42;;;;;;;;;;;;;;;;;;4980113;28;20061;-80
2022/10/02 05:35:27;;;;;;;2.92;0.95;;;;;;;;;;4979201;28;19905;-80
2022/10/02 05:38:27;;;;;;;3.78;1.27;;;;;;;;;;5013044;28;20033;-79
2022/10/02 05:41:19;;;;;;;4.85;1.25;;;;;;;;;;4996147;28;20034;-79
2022/10/02 05:44:02;;;;;;;2.20;0.90;;;;;;;;;;4995021;28;20077;-79
2022/10/02 05:46:43;;;;;;;3.03;0.63;;;;;;;;;;4996684;28;20119;-80
2022/10/02 05:49:14;;;;;;;3.22;1.38;;;;;;;;;;4985497;28;20065;-79
2022/10/02 05:51:52;;;;;;;3.05;0.93;;;;;;;;;;4982562;28;20137;-79
2022/10/02 05:54:48;;;;;;;1.85;0.70;;;;;;;;;;5015868;28;20029;-79
2022/10/02 05:57:50;;;;;;;2.60;0.98;;;;;;;;;;5017898;28;20491;-79
2022/10/02 06:00:33;;;;;;;2.47;0.90;;;;;;;;;;5020979;28;20086;-79
2022/10/02 06:03:17;;;;;;;3.13;0.70;;;;;;;;;;5014854;28;20451;-79
2022/10/02 06:05:56;;;;;;;2.50;0.68;;;;;;;;;;5001608;28;20040;-79
2022/10/02 06:08:29;;;;;;;3.25;1.20;;;;;;;;;;4983757;28;20037;-79
2022/10/02 06:10:56;;;;;;;2.50;0.80;;;;;;;;;;4982992;28;20025;-79
2022/10/02 06:13:42;;;;;;;5.30;1.45;;;;;;;;;;4997896;28;20048;-79
2022/10/02 06:16:22;;;;;;;3.70;0.77;;;;;;;;;;4998251;28;20495;-80
2022/10/02 06:18:53;;;;;;;3.03;0.98;;;;;;;;;;4998307;28;20033;-79
2022/10/02 06:21:26;;;;;;;3.60;1.00;;;;;;;;;;4981596;28;20156;-79
2022/10/02 06:23:54;;;;;;;3.03;0.93;;;;;;;;;;5014361;28;20052;-80
2022/10/02 06:26:24;;;;;;;2.72;0.90;;;;;;;;;;4996776;28;20051;-80
2022/10/02 06:28:53;;;;;;;3.80;1.10;;;;;;;;;;4997921;28;20262;-79
2022/10/02 06:31:38;;;;;;;2.80;0.70;;;;;;;;;;4998359;28;20030;-80
2022/10/02 06:34:03;;;;;;;4.07;1.13;;;;;;;;;;4999218;28;20037;-79
2022/10/02 06:36:37;;;;;;;2.47;0.73;;;;;;;;;;4981395;28;20030;-79
2022/10/02 06:39:09;;;;;;;2.60;0.95;;;;;;;;;;5031512;28;20037;-80
2022/10/02 06:41:53;;;;;;;5.95;0.80;;;;;;;;;;4997343;28;20120;-79
2022/10/02 06:44:27;;;;;;;2.00;0.73;;;;;;;;;;4997528;28;20052;-81
2022/10/02 06:47:07;;;;;;;3.42;0.75;;;;;;;;;;5013930;28;20033;-82
2022/10/02 06:50:13;;;;;;;3.47;0.82;;;;;;;;;;4998961;28;20037;-82
2022/10/02 06:52:54;;;;;;;6.68;1.00;;;;;;;;;;4999802;28;20038;-81
2022/10/02 06:56:17;;;;;;;6.65;1.13;;;;;;;;;;5038901;28;20633;-81
2022/10/02 06:59:05;;;;;;;2.55;0.85;;;;;;;;;;4938139;28;20058;-81
2022/10/02 07:01:52;;;;;;;3.03;0.90;;;;;;;;;;4916978;29;20063;-80
2022/10/02 07:04:24;;;;;;;4.68;1.00;;;;;;;;;;4956457;28;20488;-81
2022/10/02 07:07:03;;;;;;;1.77;0.75;;;;;;;;;;5010391;28;20404;-81
2022/10/02 07:10:04;;;;;;;3.67;0.85;;;;;;;;;;4977575;28;20057;-81
2022/10/02 07:12:43;;;;;;;3.58;0.77;;;;;;;;;;4993681;28;20520;-82
2022/10/02 07:15:31;;;;;;;5.72;0.98;;;;;;;;;;4978367;28;20042;-79
2022/10/02 07:18:21;;;;;;;4.75;0.73;;;;;;;;;;4990830;28;20034;-81
2022/10/02 07:20:53;;;;;;;6.20;1.05;;;;;;;;;;4976691;28;20026;-80
2022/10/02 07:23:26;;;;;;;;;;;;;;;;;;4977910;28;20026;-81
2022/10/02 07:26:01;;;;;;;;;;;;;;;;;;5010122;28;19945;-80
2022/10/02 07:28:43;;;;;;;6.78;1.38;;;;;;;;;;4993992;28;19916;-81
2022/10/02 07:31:30;;;;;;;8.93;1.52;;;;;;;;;;4978445;28;20112;-82
2022/10/02 07:34:26;;;;;;;8.63;4.22;;;;;;;;;;4994493;28;20117;-83
2022/10/02 07:37:07;;;;;;;55.70;23.80;;;;;;;;;;4981809;28;20026;-82
2022/10/02 07:39:54;;;;;;;202.43;103.30;;;;;;;;;;4981917;28;20029;-82
2022/10/02 07:42:36;;;;;;;341.77;194.20;;;;;;;;;;5000238;28;20061;-83
2022/10/02 07:45:22;;;;;;;271.65;148.55;;;;;;;;;;5013311;28;20053;-84
2022/10/02 07:47:51;;;;;;;186.88;102.68;;;;;;;;;;5024068;28;20033;-85
2022/10/02 07:50:58;;;;;;;180.82;103.60;;;;;;;;;;5017059;28;20036;-82
2022/10/02 07:53:38;;;;;;;194.20;105.32;;;;;;;;;;4997014;28;20022;-83
2022/10/02 07:56:05;;;;;;;197.15;111.38;;;;;;;;;;5011107;28;20064;-83
2022/10/02 07:58:37;;;;;;;193.18;110.53;;;;;;;;;;5021093;28;20056;-82
2022/10/02 08:01:07;;;;;;;187.60;107.57;;;;;;;;;;4987106;28;20029;-82
2022/10/02 08:03:47;;;;;;;183.75;104.40;;;;;;;;;;4965361;28;20104;-82
2022/10/02 08:06:12;;;;;;;177.50;98.60;;;;;;;;;;4997937;28;20040;-82
2022/10/02 08:08:42;;;;;;;160.23;93.30;;;;;;;;;;4997038;28;20030;-82
2022/10/02 08:11:23;;;;;;;162.93;94.40;;;;;;;;;;4998010;28;20025;-82
2022/10/02 08:14:01;;;;;;;166.57;92.80;;;;;;;;;;4984327;28;20034;-82
2022/10/02 08:16:31;;;;;;;162.60;89.43;;;;;;;;;;4988304;28;20498;-82
2022/10/02 08:19:07;;;;;;;145.88;85.50;;;;;;;;;;4988194;28;20025;-82
2022/10/02 08:21:40;;;;;;;150.63;82.63;;;;;;;;;;5003940;28;20141;-82
2022/10/02 08:24:11;;;;;;;138.00;80.00;;;;;;;;;;5003371;28;20041;-82
2022/10/02 08:26:54;;;;;;;141.45;83.03;;;;;;;;;;4986934;28;20055;-82
2022/10/02 08:29:39;;;;;;;139.68;82.88;;;;;;;;;;5002671;28;20033;-81
2022/10/02 08:32:10;;;;;;;134.82;79.85;;;;;;;;;;5018557;28;20055;-81
2022/10/02 08:34:36;;;;;;;140.40;76.68;;;;;;;;;;5002243;28;20037;-81
2022/10/02 08:37:20;;;;;;;132.60;75.88;;;;;;;;;;5002536;28;20475;-82
2022/10/02 08:40:00;;;;;;;131.90;73.43;;;;;;;;;;5017676;28;20495;-81
2022/10/02 08:42:44;;;;;;;127.30;74.40;;;;;;;;;;5019272;28;20064;-81
2022/10/02 08:45:34;;;;;;;120.07;70.32;;;;;;;;;;5002171;28;20041;-82
2022/10/02 08:47:59;;;;;;;129.50;73.63;;;;;;;;;;5006519;28;20034;-82
2022/10/02 08:50:31;;;;;;;123.65;68.55;;;;;;;;;;4998783;28;20033;-81
2022/10/02 08:53:28;;;;;;;121.20;65.03;;;;;;;;;;4997255;28;20116;-81
2022/10/02 08:56:02;;;;;;;117.03;68.15;;;;;;;;;;5027850;28;20106;-82
2022/10/02 08:58:33;;;;;;;124.35;75.65;;;;;;;;;;5021669;28;20484;-82
2022/10/02 09:01:23;;;;;;;146.85;86.05;;;;;;;;;;5054657;28;20056;-82
2022/10/02 09:04:01;;;;;;;138.18;79.55;;;;;;;;;;5019390;28;20029;-81
2022/10/02 09:07:20;;;;;;;130.95;77.63;;;;;;;;;;5020078;28;20549;-81
2022/10/02 09:10:12;;;;;;;118.10;73.80;;;;;;;;;;4909710;29;20027;-81
2022/10/02 09:12:57;;;;;;;124.83;73.77;;;;;;;;;;5003453;28;20049;-81
2022/10/02 09:15:41;;;;;;;129.80;73.55;;;;;;;;;;5020083;28;20815;-81
2022/10/02 09:18:31;;;;;;;123.80;72.95;;;;;;;;;;5020957;28;20047;-82
2022/10/02 09:21:13;;;;;;;123.50;70.28;;;;;;;;;;5019251;28;20029;-82
2022/10/02 09:23:47;;;;;;;125.00;76.60;;;;;;;;;;5019892;28;20496;-81
2022/10/02 09:26:28;;;;;;;118.68;72.88;;;;;;;;;;5036860;28;20029;-81
2022/10/02 09:29:33;;;;;;;123.35;76.50;;;;;;;;;;5004579;28;20044;-80
2022/10/02 09:32:33;;;;;;;122.78;75.50;;;;;;;;;;5037319;28;20029;-81
2022/10/02 09:35:27;;;;;;;142.98;83.00;;;;;;;;;;5041969;28;20060;-81
2022/10/02 09:38:04;;;;;;;136.93;82.88;;;;;;;;;;5036158;28;20033;-80
2022/10/02 09:41:05;;;;;;;128.63;78.95;;;;;;;;;;5021324;28;20029;-82
2022/10/02 09:43:48;;;;;;;125.40;76.35;;;;;;;;;;4930817;29;20241;-81
2022/10/02 09:46:18;;;;;;;123.15;74.55;;;;;;;;;;4992093;28;20073;-81
2022/10/02 09:48:59;;;;;;;112.72;66.90;;;;;;;;;;5021475;28;20033;-81
2022/10/02 09:51:27;;;;;;;117.03;71.13;;;;;;;;;;5007202;28;20048;-81
2022/10/02 09:54:26;;;;;;;119.03;69.93;;;;;;;;;;4994133;28;20034;-82
2022/10/02 09:57:05;;;;;;;114.88;68.22;;;;;;;;;;4978912;28;20038;-82
2022/10/02 09:59:50;;;;;;;105.25;65.90;;;;;;;;;;4978905;28;20041;-82
2022/10/02 10:02:32;;;;;;;110.82;68.78;;;;;;;;;;4978804;28;20400;-82
2022/10/02 10:05:31;;;;;;;102.13;63.92;;;;;;;;;;5005893;28;20037;-82
2022/10/02 10:08:27;;;;;;;99.30;62.85;;;;;;;;;;5025235;28;20053;-82
2022/10/02 10:11:15;;;;;;;99.38;62.63;;;;;;;;;;5022753;28;20065;-82
2022/10/02 10:13:52;;;;;;;95.15;59.95;;;;;;;;;;4998129;28;20048;-81
2022/10/02 10:16:29;;;;;;;92.03;58.75;;;;;;;;;;4999195;28;20498;-81
2022/10/02 10:19:16;;;;;;;115.80;62.00;;;;;;;;;;4997293;28;20029;-81
2022/10/02 10:22:15;;;;;;;92.13;55.00;;;;;;;;;;4997638;28;20025;-82
2022/10/02 10:25:06;;;;;;;87.28;53.80;;;;;;;;;;5002784;28;20132;-82
2022/10/02 10:28:01;;;;;;;92.82;54.47;;;;;;;;;;4997485;28;20025;-81
2022/10/02 10:30:54;;;;;;;92.15;53.42;;;;;;;;;;4981379;28;20124;-83
2022/10/02 10:33:36;;;;;;;94.35;54.17;;;;;;;;;;4984107;28;20496;-83
2022/10/02 10:38:31;;;;;;;77.20;50.67;;;;;;;;;;4998004;28;20044;-81
2022/10/02 10:39:35;;;;;;;82.65;49.03;;;;;;;;;;5016472;28;20021;-81
2022/10/02 10:42:29;;;;;;;82.68;49.92;;;;;;;;;;4999784;28;20132;-81
2022/10/02 10:45:07;;;;;;;78.55;49.35;;;;;;;;;;4964655;28;20056;-81
2022/10/02 10:47:53;;;;;;;80.53;50.78;;;;;;;;;;4997353;28;20049;-81
2022/10/02 10:50:51;;;;;;;79.28;46.47;;;;;;;;;;4998721;28;20840;-80
2022/10/02 10:54:10;;;;;;;76.07;45.67;;;;;;;;;;4997378;28;20048;-81
2022/10/02 10:56:45;;;;;;;81.85;47.38;;;;;;;;;;4985381;28;20033;-81
2022/10/02 10:59:41;;;;;;;72.75;42.40;;;;;;;;;;5017217;28;20028;-80
2022/10/02 11:02:38;;;;;;;71.38;44.60;;;;;;;;;;5016627;28;20549;-81
2022/10/02 11:05:41;;;;;;;73.88;42.22;;;;;;;;;;5017131;28;20356;-82
2022/10/02 11:08:26;;;;;;;78.20;43.60;;;;;;;;;;5033424;28;20021;-80
2022/10/02 11:11:10;;;;;;;64.20;40.92;;;;;;;;;;5001704;28;20364;-81
2022/10/02 11:14:12;;;;;;;65.68;42.67;;;;;;;;;;5004758;28;20035;-81
2022/10/02 11:17:00;;;;;;;70.32;41.05;;;;;;;;;;5036960;28;20171;-82
2022/10/02 11:19:44;;;;;;;64.05;41.53;;;;;;;;;;5021922;28;20067;-82
2022/10/02 11:22:32;;;;;;;63.10;40.72;;;;;;;;;;5022818;28;20127;-81
2022/10/02 11:25:12;;;;;;;64.63;38.70;;;;;;;;;;5022546;28;20025;-81
2022/10/02 11:27:56;;;;;;;65.10;37.30;;;;;;;;;;5020221;28;20120;-81
2022/10/02 11:30:56;;;;;;;66.50;36.83;;;;;;;;;;5021414;28;20491;-81
2022/10/02 11:33:37;;;;;;;68.85;37.53;;;;;;;;;;5028472;28;20045;-81
2022/10/02 11:36:24;;;;;;;73.32;37.45;;;;;;;;;;5006446;28;20057;-81
2022/10/02 11:39:25;;;;;;;80.38;38.67;;;;;;;;;;5027416;28;20064;-81
2022/10/02 11:42:04;;;;;;;97.38;38.13;;;;;;;;;;5016730;28;20033;-81
2022/10/02 11:45:06;;;;;;;87.78;40.85;;;;;;;;;;4997697;28;20136;-81
2022/10/02 11:47:49;;;;;;;103.93;40.22;;;;;;;;;;5000683;28;20025;-80
2022/10/02 11:50:53;;;;;;;99.78;43.05;;;;;;;;;;5016933;28;20497;-81
2022/10/02 11:53:28;;;;;;;;;;;;;;;;;;5017699;28;20771;-80
2022/10/02 11:56:13;;;;;;;116.40;40.00;;;;;;;;;;5004216;28;19939;-81
2022/10/02 11:58:57;;;;;;;115.82;39.08;;;;;;;;;;5036790;28;20032;-81
2022/10/02 12:01:36;;;;;;;114.68;40.33;;;;;;;;;;5036766;28;20115;-81
2022/10/02 12:04:17;;;;;;;115.85;41.60;;;;;;;;;;5037426;28;20036;-81
2022/10/02 12:07:05;;;;;;;106.57;39.65;;;;;;;;;;5020377;28;20135;-80
2022/10/02 12:10:05;;;;;;;114.65;36.83;;;;;;;;;;5037491;28;20163;-81
2022/10/02 12:12:47;;;;;;;107.18;40.10;;;;;;;;;;5019938;28;20078;-80
2022/10/02 12:15:32;;;;;;;96.53;36.53;;;;;;;;;;5036823;28;20028;-81
2022/10/02 12:18:25;;;;;;;93.90;35.80;;;;;;;;;;5054717;28;20074;-81
2022/10/02 12:27:02;;;;;;;102.80;37.50;;;;;;;;;;5039457;28;20036;-81
2022/10/02 12:29:47;;;;;;;102.03;37.42;;;;;;;;;;5036937;28;20037;-80
2022/10/02 12:32:35;;;;;;;88.75;36.00;;;;;;;;;;5018933;28;20029;-81
2022/10/02 12:35:32;;;;;;;104.63;34.78;;;;;;;;;;5019608;28;20123;-81
2022/10/02 12:38:35;;;;;;;81.45;33.03;;;;;;;;;;4976465;28;20395;-80
2022/10/02 12:41:02;;;;;;;;;;;;;;;;;;5036632;28;20033;-80
2022/10/02 12:44:01;;;;;;;89.95;32.40;;;;;;;;;;5023585;28;19920;-80
2022/10/02 12:46:34;;;;;;;81.55;31.45;;;;;;;;;;4995865;28;20037;-81
2022/10/02 12:49:11;;;;;;;74.40;31.50;;;;;;;;;;4995140;28;20510;-81
2022/10/02 12:52:28;;;;;;;75.03;30.90;;;;;;;;;;4988789;28;20034;-80
2022/10/02 12:55:31;;;;;;;85.00;31.60;;;;;;;;;;4992281;28;20032;-80
2022/10/02 12:58:22;;;;;;;80.63;30.50;;;;;;;;;;5018977;28;20033;-80
2022/10/02 13:01:00;;;;;;;77.28;29.95;;;;;;;;;;5035828;28;20056;-81
2022/10/02 13:03:37;;;;;;;69.65;27.95;;;;;;;;;;5035799;28;20040;-81
2022/10/02 13:06:21;;;;;;;60.67;27.17;;;;;;;;;;5019884;28;20479;-81
2022/10/02 13:08:47;;;;;;;64.70;24.08;;;;;;;;;;5035312;28;20107;-81
2022/10/02 13:11:25;;;;;;;69.10;26.05;;;;;;;;;;5035667;28;20107;-81
2022/10/02 13:14:06;;;;;;;76.00;26.83;;;;;;;;;;5035143;28;20079;-81
2022/10/02 13:16:45;;;;;;;63.35;24.23;;;;;;;;;;5018129;28;20037;-80
2022/10/02 13:19:35;;;;;;;71.43;25.83;;;;;;;;;;5019151;28;20036;-80
2022/10/02 13:22:16;;;;;;;68.95;25.40;;;;;;;;;;5018384;28;20021;-80
2022/10/02 13:25:00;;;;;;;68.75;24.17;;;;;;;;;;5018544;28;20094;-79
2022/10/02 13:28:12;;;;;;;57.60;22.92;;;;;;;;;;5052852;28;20036;-79
2022/10/02 13:30:54;;;;;;;61.30;22.42;;;;;;;;;;5018192;28;20033;-80
2022/10/02 13:33:38;;;;;;;50.30;20.58;;;;;;;;;;4992469;28;20033;-81
2022/10/02 13:36:13;;;;;;;53.88;21.45;;;;;;;;;;5019673;28;20029;-81
2022/10/02 13:39:03;;;;;;;52.00;20.42;;;;;;;;;;5017385;28;20375;-81
2022/10/02 13:41:32;;;;;;;59.92;21.05;;;;;;;;;;4998516;28;20037;-80
2022/10/02 13:44:11;;;;;;;43.38;19.52;;;;;;;;;;4978896;28;20029;-80
2022/10/02 13:46:45;;;;;;;44.20;19.45;;;;;;;;;;4979688;28;20042;-80
2022/10/02 13:49:14;;;;;;;43.20;17.70;;;;;;;;;;4995840;28;20032;-80
2022/10/02 13:51:56;;;;;;;41.30;17.92;;;;;;;;;;5008909;28;20030;-80
2022/10/02 13:54:50;;;;;;;43.78;17.73;;;;;;;;;;4999536;28;20029;-80
2022/10/02 13:57:48;;;;;;;45.92;16.88;;;;;;;;;;5017577;28;20136;-81
2022/10/02 14:00:36;;;;;;;37.28;16.40;;;;;;;;;;5034038;28;20045;-81
2022/10/02 14:03:30;;;;;;;36.08;17.17;;;;;;;;;;5017831;28;20043;-80
2022/10/02 14:06:14;;;;;;;38.53;15.52;;;;;;;;;;5017710;28;20036;-81
2022/10/02 14:08:51;;;;;;;44.05;16.45;;;;;;;;;;5034064;28;20032;-81
2022/10/02 14:11:19;;;;;;;39.55;14.40;;;;;;;;;;5028564;28;20083;-80
2022/10/02 14:14:07;;;;;;;35.63;15.75;;;;;;;;;;5014519;28;20073;-80
2022/10/02 14:16:52;;;;;;;36.70;14.80;;;;;;;;;;5013887;28;20038;-80
2022/10/02 14:19:27;;;;;;;34.78;14.50;;;;;;;;;;5014820;28;20092;-79
2022/10/02 14:22:10;;;;;;;31.92;14.40;;;;;;;;;;4997449;28;20036;-80
2022/10/02 14:25:00;;;;;;;36.88;15.30;;;;;;;;;;5031693;28;20037;-81
2022/10/02 14:27:37;;;;;;;32.65;14.02;;;;;;;;;;5012951;28;20041;-80
2022/10/02 14:30:14;;;;;;;32.78;14.43;;;;;;;;;;5012397;28;20034;-81
2022/10/02 14:32:41;;;;;;;33.67;16.90;;;;;;;;;;5010739;28;20573;-80
2022/10/02 14:35:29;;;;;;;34.90;17.85;;;;;;;;;;5014143;28;20037;-80
2022/10/02 14:38:02;;;;;;;33.88;16.60;;;;;;;;;;5019321;28;20040;-80
2022/10/02 14:40:31;;;;;;;30.63;14.82;;;;;;;;;;5024790;28;20037;-81
2022/10/02 14:43:08;;;;;;;30.85;14.30;;;;;;;;;;4977782;28;20056;-81
2022/10/02 14:45:51;;;;;;;30.67;13.13;;;;;;;;;;4977734;28;20603;-80
2022/10/02 14:48:42;;;;;;;33.10;14.68;;;;;;;;;;4965016;28;20383;-80
2022/10/02 14:51:11;;;;;;;32.20;14.47;;;;;;;;;;4988769;28;20124;-81
2022/10/02 14:53:55;;;;;;;29.95;14.85;;;;;;;;;;5009820;28;20034;-80
2022/10/02 14:56:25;;;;;;;32.75;13.43;;;;;;;;;;5027719;28;20028;-80
2022/10/02 14:59:00;;;;;;;29.95;14.63;;;;;;;;;;5033120;28;20041;-80
2022/10/02 15:01:25;;;;;;;26.15;13.70;;;;;;;;;;5032929;28;20415;-80
2022/10/02 15:04:03;;;;;;;35.35;14.98;;;;;;;;;;5016661;28;20071;-80
2022/10/02 15:06:38;;;;;;;27.50;12.68;;;;;;;;;;5016706;28;20021;-80
2022/10/02 15:09:27;;;;;;;27.85;13.68;;;;;;;;;;5016491;28;20064;-81
2022/10/02 15:12:01;;;;;;;31.63;14.43;;;;;;;;;;5033360;28;20443;-80
2022/10/02 15:14:33;;;;;;;29.48;12.45;;;;;;;;;;5000512;28;20067;-80
2022/10/02 15:19:53;;;;;;;24.48;12.00;;;;;;;;;;5019219;28;20404;-81
2022/10/02 15:22:26;;;;;;;24.52;12.13;;;;;;;;;;5016611;28;20067;-81
2022/10/02 15:24:56;;;;;;;25.52;12.13;;;;;;;;;;5016676;28;20564;-80
2022/10/02 15:27:23;;;;;;;20.67;10.23;;;;;;;;;;4984603;28;20505;-82
2022/10/02 15:30:03;;;;;;;22.05;11.70;;;;;;;;;;5017031;28;20094;-81
2022/10/02 15:32:52;;;;;;;32.05;12.23;;;;;;;;;;5004858;28;20079;-82
2022/10/02 15:35:42;;;;;;;23.02;10.73;;;;;;;;;;5002734;28;20108;-82
2022/10/02 15:38:26;;;;;;;25.45;10.98;;;;;;;;;;4997082;28;20038;-83
2022/10/02 15:41:15;;;;;;;26.30;10.73;;;;;;;;;;5010551;28;20033;-83
2022/10/02 15:43:52;;;;;;;35.45;12.88;;;;;;;;;;4987062;28;20033;-83
2022/10/02 15:46:26;;;;;;;27.45;11.13;;;;;;;;;;5014173;28;20072;-84
2022/10/02 15:49:10;;;;;;;26.17;10.50;;;;;;;;;;5005168;28;20041;-85
2022/10/02 15:51:59;;;;;;;30.98;11.38;;;;;;;;;;4993731;28;20022;-85
2022/10/02 15:54:34;;;;;;;22.33;9.43;;;;;;;;;;4981213;28;20065;-85